sensor_id;sensor_type;location;lat;lon;timestamp;pressure;altitude;pressure_sealevel;temperature;humidity
45357;BME280;31092;51.924;21.448;2023-05-20T00:00:28;101371.78;;;12.53;100.00
45357;BME280;31092;51.924;21.448;2023-05-20T00:02:53;101377.19;;;12.53;100.00
45357;BME280;31092;51.924;21.448;2023-05-20T00:05:19;101375.31;;;12.54;100.00
45357;BME280;31092;51.924;21.448;2023-05-20T00:07:44;101365.53;;;12.53;100.00
45357;BME280;31092;51.924;21.448;2023-05-20T00:10:09;101364.50;;;12.54;100.00
45357;BME280;31092;51.924;21.448;2023-05-20T00:12:36;101359.09;;;12.54;100.00
45357;BME280;31092;51.924;21.448;2023-05-20T00:15:02;101359.94;;;12.54;100.00
45357;BME280;31092;51.924;21.448;2023-05-20T00:17:27;101356.25;;;12.55;100.00
45357;BME280;31092;51.924;21.448;2023-05-20T00:19:53;101367.94;;;12.56;100.00
45357;BME280;31092;51.924;21.448;2023-05-20T00:22:19;101369.75;;;12.55;100.00
45357;BME280;31092;51.924;21.448;2023-05-20T00:24:44;101362.66;;;12.54;100.00
45357;BME280;31092;51.924;21.448;2023-05-20T00:27:10;101362.66;;;12.54;100.00
45357;BME280;31092;51.924;21.448;2023-05-20T00:29:35;101352.00;;;12.53;100.00
45357;BME280;31092;51.924;21.448;2023-05-20T00:32:01;101363.66;;;12.53;100.00
45357;BME280;31092;51.924;21.448;2023-05-20T00:34:26;101358.25;;;12.53;100.00
45357;BME280;31092;51.924;21.448;2023-05-20T00:36:52;101359.09;;;12.54;100.00
45357;BME280;31092;51.924;21.448;2023-05-20T00:39:18;101358.25;;;12.53;100.00
45357;BME280;31092;51.924;21.448;2023-05-20T00:44:44;101349.97;;;12.55;100.00
45357;BME280;31092;51.924;21.448;2023-05-20T00:47:19;101349.13;;;12.54;100.00
45357;BME280;31092;51.924;21.448;2023-05-20T00:49:47;101351.84;;;12.54;100.00
45357;BME280;31092;51.924;21.448;2023-05-20T00:52:15;101351.72;;;12.56;100.00
45357;BME280;31092;51.924;21.448;2023-05-20T00:54:41;101351.72;;;12.56;100.00
45357;BME280;31092;51.924;21.448;2023-05-20T00:57:18;101356.94;;;12.57;100.00
45357;BME280;31092;51.924;21.448;2023-05-20T00:59:43;101359.66;;;12.57;100.00
45357;BME280;31092;51.924;21.448;2023-05-20T01:02:09;101351.53;;;12.57;100.00
45357;BME280;31092;51.924;21.448;2023-05-20T01:04:44;101349.84;;;12.56;100.00
45357;BME280;31092;51.924;21.448;2023-05-20T01:07:12;101358.81;;;12.57;100.00
45357;BME280;31092;51.924;21.448;2023-05-20T01:09:38;101348.00;;;12.57;100.00
45357;BME280;31092;51.924;21.448;2023-05-20T01:14:48;101340.91;;;12.56;100.00
45357;BME280;31092;51.924;21.448;2023-05-20T01:17:20;101344.28;;;12.58;100.00
45357;BME280;31092;51.924;21.448;2023-05-20T01:19:51;101350.53;;;12.58;100.00
45357;BME280;31092;51.924;21.448;2023-05-20T01:24:48;101345.97;;;12.59;100.00
45357;BME280;31092;51.924;21.448;2023-05-20T01:27:13;101351.72;;;12.56;100.00
45357;BME280;31092;51.924;21.448;2023-05-20T01:29:40;101358.81;;;12.57;100.00
45357;BME280;31092;51.924;21.448;2023-05-20T01:32:08;101352.69;;;12.55;100.00
45357;BME280;31092;51.924;21.448;2023-05-20T01:34:38;101358.81;;;12.57;100.00
45357;BME280;31092;51.924;21.448;2023-05-20T01:37:05;101358.81;;;12.57;100.00
45357;BME280;31092;51.924;21.448;2023-05-20T01:39:35;101361.34;;;12.58;100.00
45357;BME280;31092;51.924;21.448;2023-05-20T01:42:05;101356.09;;;12.57;100.00
45357;BME280;31092;51.924;21.448;2023-05-20T01:44:31;101355.25;;;12.56;100.00
45357;BME280;31092;51.924;21.448;2023-05-20T01:46:58;101358.81;;;12.57;100.00
45357;BME280;31092;51.924;21.448;2023-05-20T01:49:26;101350.69;;;12.57;100.00
45357;BME280;31092;51.924;21.448;2023-05-20T01:51:52;101358.81;;;12.57;100.00
45357;BME280;31092;51.924;21.448;2023-05-20T01:54:17;101356.94;;;12.57;100.00
45357;BME280;31092;51.924;21.448;2023-05-20T01:56:44;101353.41;;;12.57;100.00
45357;BME280;31092;51.924;21.448;2023-05-20T01:59:10;101351.72;;;12.56;100.00
45357;BME280;31092;51.924;21.448;2023-05-20T02:01:35;101354.25;;;12.57;100.00
45357;BME280;31092;51.924;21.448;2023-05-20T02:04:00;101354.41;;;12.56;100.00
45357;BME280;31092;51.924;21.448;2023-05-20T02:06:26;101363.66;;;12.53;100.00
45357;BME280;31092;51.924;21.448;2023-05-20T02:08:51;101356.53;;;12.52;100.00
45357;BME280;31092;51.924;21.448;2023-05-20T02:11:17;101367.34;;;12.52;100.00
45357;BME280;31092;51.924;21.448;2023-05-20T02:13:42;101358.38;;;12.52;100.00
45357;BME280;31092;51.924;21.448;2023-05-20T02:16:08;101346.72;;;12.51;100.00
45357;BME280;31092;51.924;21.448;2023-05-20T02:18:33;101350.59;;;12.49;100.00
45357;BME280;31092;51.924;21.448;2023-05-20T02:21:02;101351.59;;;12.48;100.00
45357;BME280;31092;51.924;21.448;2023-05-20T02:23:36;101349.72;;;12.48;100.00
45357;BME280;31092;51.924;21.448;2023-05-20T02:26:23;101348.91;;;12.48;100.00
45357;BME280;31092;51.924;21.448;2023-05-20T02:28:51;101348.22;;;12.45;100.00
45357;BME280;31092;51.924;21.448;2023-05-20T02:31:16;101349.19;;;12.44;100.00
45357;BME280;31092;51.924;21.448;2023-05-20T02:33:42;101353.63;;;12.45;100.00
45357;BME280;31092;51.924;21.448;2023-05-20T02:36:11;101349.19;;;12.44;100.00
45357;BME280;31092;51.924;21.448;2023-05-20T02:38:36;101352.91;;;12.43;100.00
45357;BME280;31092;51.924;21.448;2023-05-20T02:41:11;101351.34;;;12.41;100.00
45357;BME280;31092;51.924;21.448;2023-05-20T02:43:36;101351.50;;;12.39;100.00
45357;BME280;31092;51.924;21.448;2023-05-20T02:46:03;101348.94;;;12.38;100.00
45357;BME280;31092;51.924;21.448;2023-05-20T02:48:28;101346.41;;;12.36;100.00
45357;BME280;31092;51.924;21.448;2023-05-20T02:51:03;101353.50;;;12.37;100.00
45357;BME280;31092;51.924;21.448;2023-05-20T02:53:28;101354.34;;;12.38;100.00
45357;BME280;31092;51.924;21.448;2023-05-20T02:58:54;101359.16;;;12.44;100.00
45357;BME280;31092;51.924;21.448;2023-05-20T03:01:26;101363.72;;;12.43;100.00
45357;BME280;31092;51.924;21.448;2023-05-20T03:03:53;101361.84;;;12.44;100.00
45357;BME280;31092;51.924;21.448;2023-05-20T03:09:23;101356.44;;;12.44;100.00
45357;BME280;31092;51.924;21.448;2023-05-20T03:11:52;101359.16;;;12.44;100.00
45357;BME280;31092;51.924;21.448;2023-05-20T03:14:17;101364.56;;;12.44;100.00
45357;BME280;31092;51.924;21.448;2023-05-20T03:16:43;101356.31;;;12.45;100.00
45357;BME280;31092;51.924;21.448;2023-05-20T03:19:33;101361.56;;;12.47;100.00
45357;BME280;31092;51.924;21.448;2023-05-20T03:27:55;101363.13;;;12.50;100.00
45357;BME280;31092;51.924;21.448;2023-05-20T03:33:17;101357.13;;;12.56;100.00
45357;BME280;31092;51.924;21.448;2023-05-20T03:35:43;101359.50;;;12.59;100.00
45357;BME280;31092;51.924;21.448;2023-05-20T03:38:08;101369.88;;;12.63;100.00
45357;BME280;31092;51.924;21.448;2023-05-20T03:40:34;101359.72;;;12.65;100.00
45357;BME280;31092;51.924;21.448;2023-05-20T03:42:59;101359.91;;;12.64;100.00
45357;BME280;31092;51.924;21.448;2023-05-20T03:45:25;101363.44;;;12.64;100.00
45357;BME280;31092;51.924;21.448;2023-05-20T03:47:50;101360.75;;;12.64;100.00
45357;BME280;31092;51.924;21.448;2023-05-20T03:50:35;101366.69;;;12.68;100.00
45357;BME280;31092;51.924;21.448;2023-05-20T03:53:01;101367.25;;;12.72;100.00
45357;BME280;31092;51.924;21.448;2023-05-20T03:55:26;101376.19;;;12.72;100.00
45357;BME280;31092;51.924;21.448;2023-05-20T03:57:55;101369.78;;;12.73;100.00
45357;BME280;31092;51.924;21.448;2023-05-20T04:00:20;101369.66;;;12.75;100.00
45357;BME280;31092;51.924;21.448;2023-05-20T04:02:46;101366.78;;;12.76;100.00
45357;BME280;31092;51.924;21.448;2023-05-20T04:05:15;101370.19;;;12.78;100.00
45357;BME280;31092;51.924;21.448;2023-05-20T04:07:47;101367.19;;;12.81;100.00
45357;BME280;31092;51.924;21.448;2023-05-20T04:10:17;101360.59;;;12.84;100.00
45357;BME280;31092;51.924;21.448;2023-05-20T04:12:43;101371.13;;;12.87;100.00
45357;BME280;31092;51.924;21.448;2023-05-20T04:15:17;101365.41;;;12.90;100.00
45357;BME280;31092;51.924;21.448;2023-05-20T04:18:02;101367.09;;;12.91;100.00
45357;BME280;31092;51.924;21.448;2023-05-20T04:20:27;101369.38;;;12.96;100.00
45357;BME280;31092;51.924;21.448;2023-05-20T04:23:04;101372.59;;;12.99;100.00
45357;BME280;31092;51.924;21.448;2023-05-20T04:25:29;101369.44;;;13.04;100.00
45357;BME280;31092;51.924;21.448;2023-05-20T04:28:02;101364.41;;;13.09;100.00
45357;BME280;31092;51.924;21.448;2023-05-20T04:30:28;101369.66;;;13.10;100.00
45357;BME280;31092;51.924;21.448;2023-05-20T04:32:54;101364.63;;;13.15;100.00
45357;BME280;31092;51.924;21.448;2023-05-20T04:35:19;101361.63;;;13.18;100.00
45357;BME280;31092;51.924;21.448;2023-05-20T04:37:45;101358.59;;;13.22;100.00
45357;BME280;31092;51.924;21.448;2023-05-20T04:40:15;101363.56;;;13.26;100.00
45357;BME280;31092;51.924;21.448;2023-05-20T04:42:41;101359.41;;;13.32;100.00
45357;BME280;31092;51.924;21.448;2023-05-20T04:45:07;101355.22;;;13.37;100.00
45357;BME280;31092;51.924;21.448;2023-05-20T04:47:33;101351.88;;;13.44;100.00
45357;BME280;31092;51.924;21.448;2023-05-20T04:50:02;101353.25;;;13.48;100.00
45357;BME280;31092;51.924;21.448;2023-05-20T04:52:29;101353.66;;;13.53;100.00
45357;BME280;31092;51.924;21.448;2023-05-20T04:55:06;101346.75;;;13.58;100.00
45357;BME280;31092;51.924;21.448;2023-05-20T04:57:36;101349.84;;;13.63;100.00
45357;BME280;31092;51.924;21.448;2023-05-20T05:00:04;101353.59;;;13.71;100.00
45357;BME280;31092;51.924;21.448;2023-05-20T05:02:31;101355.19;;;13.81;100.00
45357;BME280;31092;51.924;21.448;2023-05-20T05:04:57;101361.69;;;13.88;100.00
45357;BME280;31092;51.924;21.448;2023-05-20T05:07:22;101359.72;;;13.99;100.00
45357;BME280;31092;51.924;21.448;2023-05-20T05:09:48;101359.25;;;14.11;100.00
45357;BME280;31092;51.924;21.448;2023-05-20T05:12:13;101361.66;;;14.23;100.00
45357;BME280;31092;51.924;21.448;2023-05-20T05:14:38;101360.88;;;14.30;100.00
45357;BME280;31092;51.924;21.448;2023-05-20T05:17:04;101361.75;;;14.39;100.00
45357;BME280;31092;51.924;21.448;2023-05-20T05:19:29;101358.41;;;14.45;100.00
45357;BME280;31092;51.924;21.448;2023-05-20T05:22:02;101360.47;;;14.51;100.00
45357;BME280;31092;51.924;21.448;2023-05-20T05:24:30;101358.28;;;14.55;100.00
45357;BME280;31092;51.924;21.448;2023-05-20T05:26:56;101362.19;;;14.60;100.00
45357;BME280;31092;51.924;21.448;2023-05-20T05:29:21;101352.56;;;14.66;100.00
45357;BME280;31092;51.924;21.448;2023-05-20T05:31:46;101362.91;;;14.71;100.00
45357;BME280;31092;51.924;21.448;2023-05-20T05:34:12;101353.94;;;14.70;100.00
45357;BME280;31092;51.924;21.448;2023-05-20T05:36:38;101356.84;;;14.77;100.00
45357;BME280;31092;51.924;21.448;2023-05-20T05:39:03;101349.03;;;14.82;100.00
45357;BME280;31092;51.924;21.448;2023-05-20T05:41:29;101349.72;;;14.84;100.00
45357;BME280;31092;51.924;21.448;2023-05-20T05:43:54;101348.56;;;14.95;100.00
45357;BME280;31092;51.924;21.448;2023-05-20T05:46:20;101343.81;;;15.21;100.00
45357;BME280;31092;51.924;21.448;2023-05-20T05:48:46;101348.41;;;15.45;100.00
45357;BME280;31092;51.924;21.448;2023-05-20T05:51:13;101343.81;;;15.62;100.00
45357;BME280;31092;51.924;21.448;2023-05-20T05:53:39;101342.81;;;15.79;100.00
45357;BME280;31092;51.924;21.448;2023-05-20T05:56:04;101336.63;;;16.02;100.00
45357;BME280;31092;51.924;21.448;2023-05-20T05:58:30;101336.38;;;16.20;100.00
45357;BME280;31092;51.924;21.448;2023-05-20T06:00:56;101335.94;;;16.39;100.00
45357;BME280;31092;51.924;21.448;2023-05-20T06:03:22;101343.84;;;16.57;100.00
45357;BME280;31092;51.924;21.448;2023-05-20T06:05:48;101337.63;;;16.71;100.00
45357;BME280;31092;51.924;21.448;2023-05-20T06:08:13;101341.34;;;16.87;100.00
45357;BME280;31092;51.924;21.448;2023-05-20T06:10:39;101346.66;;;17.03;100.00
45357;BME280;31092;51.924;21.448;2023-05-20T06:13:04;101343.13;;;17.17;100.00
45357;BME280;31092;51.924;21.448;2023-05-20T06:15:29;101331.94;;;17.35;100.00
45357;BME280;31092;51.924;21.448;2023-05-20T06:17:55;101334.41;;;17.45;100.00
45357;BME280;31092;51.924;21.448;2023-05-20T06:20:20;101332.63;;;17.52;100.00
45357;BME280;31092;51.924;21.448;2023-05-20T06:22:46;101308.19;;;17.44;100.00
45357;BME280;31092;51.924;21.448;2023-05-20T06:25:17;101326.38;;;17.66;100.00
45357;BME280;31092;51.924;21.448;2023-05-20T06:27:43;101329.56;;;17.70;100.00
45357;BME280;31092;51.924;21.448;2023-05-20T06:30:08;101329.84;;;17.75;100.00
45357;BME280;31092;51.924;21.448;2023-05-20T06:32:34;101331.13;;;17.87;100.00
45357;BME280;31092;51.924;21.448;2023-05-20T06:34:59;101329.69;;;18.21;100.00
45357;BME280;31092;51.924;21.448;2023-05-20T06:37:25;101328.66;;;18.22;100.00
45357;BME280;31092;51.924;21.448;2023-05-20T06:39:51;101324.53;;;18.11;100.00
45357;BME280;31092;51.924;21.448;2023-05-20T06:42:18;101318.25;;;18.11;100.00
45357;BME280;31092;51.924;21.448;2023-05-20T06:44:44;101318.50;;;18.16;100.00
45357;BME280;31092;51.924;21.448;2023-05-20T06:47:10;101312.69;;;18.19;100.00
45357;BME280;31092;51.924;21.448;2023-05-20T06:49:35;101309.13;;;18.18;100.00
45357;BME280;31092;51.924;21.448;2023-05-20T06:52:01;101303.66;;;18.18;100.00
45357;BME280;31092;51.924;21.448;2023-05-20T06:54:26;101303.09;;;18.23;100.00
45357;BME280;31092;51.924;21.448;2023-05-20T06:56:52;101306.16;;;18.35;100.00
45357;BME280;31092;51.924;21.448;2023-05-20T06:59:17;101307.38;;;18.47;100.00
45357;BME280;31092;51.924;21.448;2023-05-20T07:01:43;101305.75;;;18.53;100.00
45357;BME280;31092;51.924;21.448;2023-05-20T07:04:08;101303.69;;;18.55;100.00
45357;BME280;31092;51.924;21.448;2023-05-20T07:06:33;101303.56;;;18.63;100.00
45357;BME280;31092;51.924;21.448;2023-05-20T07:08:59;101300.16;;;18.76;100.00
45357;BME280;31092;51.924;21.448;2023-05-20T07:11:34;101297.31;;;18.84;100.00
45357;BME280;31092;51.924;21.448;2023-05-20T07:13:59;101299.66;;;18.87;100.00
45357;BME280;31092;51.924;21.448;2023-05-20T07:16:25;101298.22;;;18.91;100.00
45357;BME280;31092;51.924;21.448;2023-05-20T07:18:50;101299.13;;;18.98;100.00
45357;BME280;31092;51.924;21.448;2023-05-20T07:21:15;101289.94;;;19.06;100.00
45357;BME280;31092;51.924;21.448;2023-05-20T07:23:51;101292.34;;;19.16;100.00
45357;BME280;31092;51.924;21.448;2023-05-20T07:26:16;101291.81;;;19.27;100.00
45357;BME280;31092;51.924;21.448;2023-05-20T07:28:42;101288.50;;;19.31;100.00
45357;BME280;31092;51.924;21.448;2023-05-20T07:31:08;101289.81;;;19.42;100.00
45357;BME280;31092;51.924;21.448;2023-05-20T07:33:33;101282.00;;;19.60;100.00
45357;BME280;31092;51.924;21.448;2023-05-20T07:35:59;101277.91;;;19.78;100.00
45357;BME280;31092;51.924;21.448;2023-05-20T07:38:24;101275.22;;;19.84;100.00
45357;BME280;31092;51.924;21.448;2023-05-20T07:40:50;101269.22;;;19.96;100.00
45357;BME280;31092;51.924;21.448;2023-05-20T07:43:15;101273.69;;;20.10;100.00
45357;BME280;31092;51.924;21.448;2023-05-20T07:45:41;101268.03;;;20.18;100.00
45357;BME280;31092;51.924;21.448;2023-05-20T07:48:06;101259.25;;;20.36;100.00
45357;BME280;31092;51.924;21.448;2023-05-20T07:50:33;101263.13;;;20.55;100.00
45357;BME280;31092;51.924;21.448;2023-05-20T07:52:58;101261.50;;;20.67;100.00
45357;BME280;31092;51.924;21.448;2023-05-20T07:55:24;101254.72;;;20.63;100.00
45357;BME280;31092;51.924;21.448;2023-05-20T07:57:49;101257.69;;;20.68;100.00
45357;BME280;31092;51.924;21.448;2023-05-20T08:00:15;101248.22;;;20.64;100.00
45357;BME280;31092;51.924;21.448;2023-05-20T08:02:40;101252.84;;;20.77;100.00
45357;BME280;31092;51.924;21.448;2023-05-20T08:05:06;101250.16;;;21.03;100.00
45357;BME280;31092;51.924;21.448;2023-05-20T08:07:31;101248.44;;;21.16;100.00
45357;BME280;31092;51.924;21.448;2023-05-20T08:09:57;101243.41;;;21.19;100.00
45357;BME280;31092;51.924;21.448;2023-05-20T08:12:22;101247.81;;;21.27;100.00
45357;BME280;31092;51.924;21.448;2023-05-20T08:14:47;101250.16;;;21.37;100.00
45357;BME280;31092;51.924;21.448;2023-05-20T08:17:13;101245.50;;;21.44;100.00
45357;BME280;31092;51.924;21.448;2023-05-20T08:19:38;101242.97;;;21.56;100.00
45357;BME280;31092;51.924;21.448;2023-05-20T08:22:04;101244.19;;;21.73;100.00
45357;BME280;31092;51.924;21.448;2023-05-20T08:24:30;101248.97;;;21.97;100.00
45357;BME280;31092;51.924;21.448;2023-05-20T08:26:55;101240.88;;;22.22;100.00
45357;BME280;31092;51.924;21.448;2023-05-20T08:29:21;101244.63;;;22.35;100.00
45357;BME280;31092;51.924;21.448;2023-05-20T08:31:46;101246.03;;;22.44;100.00
45357;BME280;31092;51.924;21.448;2023-05-20T08:34:12;101240.13;;;22.40;100.00
45357;BME280;31092;51.924;21.448;2023-05-20T08:36:37;101243.59;;;22.29;100.00
45357;BME280;31092;51.924;21.448;2023-05-20T08:39:04;101245.09;;;22.25;100.00
45357;BME280;31092;51.924;21.448;2023-05-20T08:41:29;101240.47;;;22.19;100.00
45357;BME280;31092;51.924;21.448;2023-05-20T08:43:55;101242.38;;;22.12;100.00
45357;BME280;31092;51.924;21.448;2023-05-20T08:46:21;101239.41;;;22.13;100.00
45357;BME280;31092;51.924;21.448;2023-05-20T08:48:47;101235.38;;;22.22;100.00
45357;BME280;31092;51.924;21.448;2023-05-20T08:51:12;101231.91;;;22.40;100.00
45357;BME280;31092;51.924;21.448;2023-05-20T08:53:40;101231.78;;;22.60;100.00
45357;BME280;31092;51.924;21.448;2023-05-20T08:56:05;101236.00;;;22.63;100.00
45357;BME280;31092;51.924;21.448;2023-05-20T08:58:32;101237.50;;;22.59;100.00
45357;BME280;31092;51.924;21.448;2023-05-20T09:00:57;101234.34;;;22.55;100.00
45357;BME280;31092;51.924;21.448;2023-05-20T09:03:23;101231.72;;;22.74;100.00
45357;BME280;31092;51.924;21.448;2023-05-20T09:05:49;101225.88;;;22.95;100.00
45357;BME280;31092;51.924;21.448;2023-05-20T09:08:15;101238.75;;;22.94;100.00
45357;BME280;31092;51.924;21.448;2023-05-20T09:10:40;101233.69;;;22.91;100.00
45357;BME280;31092;51.924;21.448;2023-05-20T09:13:06;101223.72;;;22.97;100.00
45357;BME280;31092;51.924;21.448;2023-05-20T09:15:32;101235.16;;;22.94;100.00
45357;BME280;31092;51.924;21.448;2023-05-20T09:17:58;101226.72;;;22.96;100.00
45357;BME280;31092;51.924;21.448;2023-05-20T09:20:24;101230.25;;;23.28;100.00
45357;BME280;31092;51.924;21.448;2023-05-20T09:22:51;101230.44;;;23.01;100.00
45357;BME280;31092;51.924;21.448;2023-05-20T09:25:19;101229.63;;;22.69;100.00
45357;BME280;31092;51.924;21.448;2023-05-20T09:27:45;101232.66;;;22.54;100.00
45357;BME280;31092;51.924;21.448;2023-05-20T09:30:10;101228.03;;;22.55;100.00
45357;BME280;31092;51.924;21.448;2023-05-20T09:32:37;101228.56;;;22.70;100.00
45357;BME280;31092;51.924;21.448;2023-05-20T09:35:02;101214.44;;;22.66;100.00
45357;BME280;31092;51.924;21.448;2023-05-20T09:37:30;101219.69;;;22.68;100.00
45357;BME280;31092;51.924;21.448;2023-05-20T09:40:02;101217.22;;;22.60;100.00
45357;BME280;31092;51.924;21.448;2023-05-20T09:44:59;101216.81;;;22.25;100.00
45357;BME280;31092;51.924;21.448;2023-05-20T09:47:28;101216.16;;;22.22;100.00
45357;BME280;31092;51.924;21.448;2023-05-20T09:49:54;101219.59;;;22.05;100.00
45357;BME280;31092;51.924;21.448;2023-05-20T09:52:20;101221.16;;;21.87;100.00
45357;BME280;31092;51.924;21.448;2023-05-20T09:54:46;101220.16;;;21.68;100.00
45357;BME280;31092;51.924;21.448;2023-05-20T09:57:12;101214.94;;;21.54;100.00
45357;BME280;31092;51.924;21.448;2023-05-20T09:59:38;101218.13;;;21.37;100.00
45357;BME280;31092;51.924;21.448;2023-05-20T10:02:04;101212.03;;;21.35;100.00
45357;BME280;31092;51.924;21.448;2023-05-20T10:04:31;101217.09;;;21.38;100.00
45357;BME280;31092;51.924;21.448;2023-05-20T10:12:35;101211.25;;;21.80;100.00
45357;BME280;31092;51.924;21.448;2023-05-20T10:20:05;101208.19;;;22.53;100.00
45357;BME280;31092;51.924;21.448;2023-05-20T10:22:33;101211.03;;;22.71;100.00
45357;BME280;31092;51.924;21.448;2023-05-20T10:24:59;101220.19;;;22.58;100.00
45357;BME280;31092;51.924;21.448;2023-05-20T10:27:24;101211.81;;;22.46;100.00
45357;BME280;31092;51.924;21.448;2023-05-20T10:29:54;101206.25;;;22.60;100.00
45357;BME280;31092;51.924;21.448;2023-05-20T10:32:25;101206.28;;;22.85;100.00
45357;BME280;31092;51.924;21.448;2023-05-20T10:34:51;101197.38;;;23.14;100.00
45357;BME280;31092;51.924;21.448;2023-05-20T10:37:20;101192.00;;;23.63;100.00
45357;BME280;31092;51.924;21.448;2023-05-20T10:39:47;101190.16;;;24.12;100.00
45357;BME280;31092;51.924;21.448;2023-05-20T10:42:12;101188.56;;;24.34;100.00
45357;BME280;31092;51.924;21.448;2023-05-20T10:44:44;101183.78;;;24.30;100.00
45357;BME280;31092;51.924;21.448;2023-05-20T10:47:09;101178.63;;;24.03;100.00
45357;BME280;31092;51.924;21.448;2023-05-20T10:49:35;101177.44;;;23.81;100.00
45357;BME280;31092;51.924;21.448;2023-05-20T10:52:05;101179.94;;;23.46;100.00
45357;BME280;31092;51.924;21.448;2023-05-20T10:54:34;101186.00;;;23.11;100.00
45357;BME280;31092;51.924;21.448;2023-05-20T10:56:59;101175.72;;;22.75;100.00
45357;BME280;31092;51.924;21.448;2023-05-20T10:59:25;101186.59;;;22.63;100.00
45357;BME280;31092;51.924;21.448;2023-05-20T11:01:50;101175.47;;;22.76;100.00
45357;BME280;31092;51.924;21.448;2023-05-20T11:04:15;101173.16;;;23.05;100.00
45357;BME280;31092;51.924;21.448;2023-05-20T11:06:48;101172.94;;;23.06;100.00
45357;BME280;31092;51.924;21.448;2023-05-20T11:09:14;101174.88;;;23.42;100.00
45357;BME280;31092;51.924;21.448;2023-05-20T11:11:40;101168.06;;;23.70;100.00
45357;BME280;31092;51.924;21.448;2023-05-20T11:14:05;101166.13;;;23.71;100.00
45357;BME280;31092;51.924;21.448;2023-05-20T11:16:31;101156.16;;;23.33;100.00
45357;BME280;31092;51.924;21.448;2023-05-20T11:18:56;101163.53;;;22.96;100.00
45357;BME280;31092;51.924;21.448;2023-05-20T11:21:22;101155.47;;;22.69;100.00
45357;BME280;31092;51.924;21.448;2023-05-20T11:23:50;101152.66;;;22.51;100.00
45357;BME280;31092;51.924;21.448;2023-05-20T11:26:15;101155.31;;;22.32;100.00
45357;BME280;31092;51.924;21.448;2023-05-20T11:28:41;101154.53;;;22.25;100.00
45357;BME280;31092;51.924;21.448;2023-05-20T11:31:06;101156.38;;;22.63;100.00
45357;BME280;31092;51.924;21.448;2023-05-20T11:33:32;101157.78;;;22.72;100.00
45357;BME280;31092;51.924;21.448;2023-05-20T11:35:57;101159.63;;;22.78;100.00
45357;BME280;31092;51.924;21.448;2023-05-20T11:38:22;101155.94;;;23.16;100.00
45357;BME280;31092;51.924;21.448;2023-05-20T11:40:52;101147.84;;;23.58;100.00
45357;BME280;31092;51.924;21.448;2023-05-20T11:43:17;101141.91;;;23.42;100.00
45357;BME280;31092;51.924;21.448;2023-05-20T11:45:43;101144.88;;;23.41;100.00
45357;BME280;31092;51.924;21.448;2023-05-20T11:48:09;101144.44;;;23.62;100.00
45357;BME280;31092;51.924;21.448;2023-05-20T11:50:39;101145.47;;;23.80;100.00
45357;BME280;31092;51.924;21.448;2023-05-20T11:53:06;101140.63;;;24.12;100.00
45357;BME280;31092;51.924;21.448;2023-05-20T11:55:32;101143.56;;;23.99;100.00
45357;BME280;31092;51.924;21.448;2023-05-20T11:58:00;101154.88;;;23.54;100.00
45357;BME280;31092;51.924;21.448;2023-05-20T12:00:26;101153.69;;;23.06;100.00
45357;BME280;31092;51.924;21.448;2023-05-20T12:02:51;101140.94;;;23.12;100.00
45357;BME280;31092;51.924;21.448;2023-05-20T12:05:17;101149.53;;;23.40;100.00
45357;BME280;31092;51.924;21.448;2023-05-20T12:07:42;101147.53;;;23.29;100.00
45357;BME280;31092;51.924;21.448;2023-05-20T12:10:08;101148.47;;;22.98;100.00
45357;BME280;31092;51.924;21.448;2023-05-20T12:12:34;101146.09;;;22.77;100.00
45357;BME280;31092;51.924;21.448;2023-05-20T12:15:01;101147.81;;;22.78;100.00
45357;BME280;31092;51.924;21.448;2023-05-20T12:17:26;101145.13;;;22.96;100.00
45357;BME280;31092;51.924;21.448;2023-05-20T12:19:52;101134.03;;;23.09;100.00
45357;BME280;31092;51.924;21.448;2023-05-20T12:22:17;101138.06;;;23.25;100.00
45357;BME280;31092;51.924;21.448;2023-05-20T12:24:42;101140.72;;;23.13;100.00
45357;BME280;31092;51.924;21.448;2023-05-20T12:27:08;101136.06;;;22.96;100.00
45357;BME280;31092;51.924;21.448;2023-05-20T12:29:34;101137.94;;;22.70;100.00
45357;BME280;31092;51.924;21.448;2023-05-20T12:31:59;101136.38;;;22.81;100.00
45357;BME280;31092;51.924;21.448;2023-05-20T12:34:25;101123.88;;;23.28;100.00
45357;BME280;31092;51.924;21.448;2023-05-20T12:36:51;101124.16;;;23.57;100.00
45357;BME280;31092;51.924;21.448;2023-05-20T12:39:16;101117.47;;;24.01;100.00
45357;BME280;31092;51.924;21.448;2023-05-20T12:41:42;101111.66;;;24.09;100.00
45357;BME280;31092;51.924;21.448;2023-05-20T12:44:08;101115.59;;;23.83;100.00
45357;BME280;31092;51.924;21.448;2023-05-20T12:46:34;101111.19;;;23.64;100.00
45357;BME280;31092;51.924;21.448;2023-05-20T12:48:59;101114.66;;;23.41;100.00
45357;BME280;31092;51.924;21.448;2023-05-20T12:51:25;101125.09;;;23.14;100.00
45357;BME280;31092;51.924;21.448;2023-05-20T12:53:50;101109.41;;;22.96;100.00
45357;BME280;31092;51.924;21.448;2023-05-20T12:56:15;101115.25;;;22.81;100.00
45357;BME280;31092;51.924;21.448;2023-05-20T12:58:41;101112.22;;;22.64;100.00
45357;BME280;31092;51.924;21.448;2023-05-20T13:01:07;101108.34;;;22.47;100.00
45357;BME280;31092;51.924;21.448;2023-05-20T13:03:32;101107.34;;;22.41;100.00